createdAt,value
2024-05-09T00:00:44.420Z,3.22
2024-05-09T00:03:12.648Z,3.03
2024-05-09T00:05:41.894Z,3.05
2024-05-09T00:08:10.738Z,3.38
2024-05-09T00:10:39.953Z,2.53
2024-05-09T00:13:09.595Z,3.25
2024-05-09T00:15:37.623Z,2.70
2024-05-09T00:18:07.420Z,2.50
2024-05-09T00:20:39.722Z,2.72
2024-05-09T00:23:12.208Z,3.15
2024-05-09T00:25:42.932Z,2.95
2024-05-09T00:28:11.992Z,2.45
2024-05-09T00:30:39.674Z,3.67
2024-05-09T00:33:09.165Z,2.78
2024-05-09T00:35:38.535Z,3.28
2024-05-09T00:38:06.647Z,2.90
2024-05-09T00:40:40.341Z,3.33
2024-05-09T00:43:12.667Z,2.33
2024-05-09T00:45:41.396Z,3.17
2024-05-09T00:48:10.592Z,2.55
2024-05-09T00:50:41.496Z,3.28
2024-05-09T00:53:12.157Z,2.70
2024-05-09T00:55:40.529Z,2.40
2024-05-09T00:58:11.228Z,3.47
2024-05-09T01:00:40.822Z,3.10
2024-05-09T01:03:11.688Z,3.13
2024-05-09T01:05:41.418Z,2.45
2024-05-09T01:08:10.688Z,2.58
2024-05-09T01:10:39.500Z,2.92
2024-05-09T01:13:08.289Z,2.38
2024-05-09T01:15:36.182Z,2.78
2024-05-09T01:18:12.630Z,2.53
2024-05-09T01:20:44.008Z,2.42
2024-05-09T01:23:15.357Z,2.85
2024-05-09T01:25:46.403Z,2.13
2024-05-09T01:28:16.616Z,2.67
2024-05-09T01:30:44.776Z,2.25
2024-05-09T01:33:13.054Z,2.67
2024-05-09T01:35:42.554Z,2.45
2024-05-09T01:38:13.990Z,2.80
2024-05-09T01:40:41.864Z,3.60
2024-05-09T01:43:10.943Z,3.40
2024-05-09T01:45:40.664Z,3.00
2024-05-09T01:48:10.013Z,2.42
2024-05-09T01:50:41.659Z,3.60
2024-05-09T01:53:12.603Z,2.50
2024-05-09T01:55:40.910Z,2.72
2024-05-09T01:58:09.128Z,2.83
2024-05-09T02:00:40.927Z,2.60
2024-05-09T02:03:14.351Z,3.25
2024-05-09T02:05:47.270Z,3.10
2024-05-09T02:08:18.647Z,2.92
2024-05-09T02:10:48.343Z,1.92
2024-05-09T02:13:18.674Z,1.95
2024-05-09T02:15:47.052Z,1.88
2024-05-09T02:18:15.179Z,2.30
2024-05-09T02:20:43.574Z,3.10
2024-05-09T02:23:12.129Z,2.03
2024-05-09T02:25:41.148Z,2.08
2024-05-09T02:28:08.822Z,2.03
2024-05-09T02:30:40.589Z,2.05
2024-05-09T02:33:12.455Z,2.35
2024-05-09T02:35:43.422Z,2.05
2024-05-09T02:38:13.128Z,2.65
2024-05-09T02:40:41.238Z,2.28
2024-05-09T02:43:10.913Z,1.73
2024-05-09T02:45:40.056Z,2.45
2024-05-09T02:48:11.367Z,2.72
2024-05-09T02:50:44.643Z,1.92
2024-05-09T02:53:13.312Z,2.55
2024-05-09T02:55:42.316Z,1.50
2024-05-09T02:58:10.822Z,2.20
2024-05-09T03:00:41.494Z,1.95
2024-05-09T03:03:13.631Z,1.95
2024-05-09T03:05:44.668Z,2.03
2024-05-09T03:08:13.081Z,1.85
2024-05-09T03:10:40.848Z,1.80
2024-05-09T03:13:09.412Z,2.15
2024-05-09T03:15:37.296Z,2.47
2024-05-09T03:18:06.960Z,3.13
2024-05-09T03:20:36.341Z,3.05
2024-05-09T03:23:05.916Z,3.53
2024-05-09T03:25:34.608Z,4.60
2024-05-09T03:28:02.762Z,4.05
2024-05-09T03:30:39.327Z,4.70
2024-05-09T03:33:13.368Z,4.82
2024-05-09T03:35:42.211Z,4.97
2024-05-09T03:38:10.129Z,5.50
2024-05-09T03:40:44.299Z,4.93
2024-05-09T03:43:11.936Z,4.95
2024-05-09T03:45:39.521Z,3.90
2024-05-09T03:48:07.875Z,4.32
2024-05-09T03:50:36.746Z,2.83
2024-05-09T03:53:05.339Z,3.05
2024-05-09T03:55:33.042Z,3.40
2024-05-09T03:58:00.761Z,2.22
2024-05-09T04:00:35.777Z,2.95
2024-05-09T04:03:09.425Z,2.78
2024-05-09T04:05:41.350Z,2.22
2024-05-09T04:08:10.880Z,3.38
2024-05-09T04:10:39.105Z,2.45
2024-05-09T04:13:06.941Z,2.25
2024-05-09T04:15:34.519Z,2.38
2024-05-09T04:18:02.821Z,1.90
2024-05-09T04:20:37.794Z,2.25
2024-05-09T04:23:11.486Z,2.05
2024-05-09T04:25:42.154Z,1.98
2024-05-09T04:28:09.867Z,2.30
2024-05-09T04:30:40.273Z,2.85
2024-05-09T04:33:12.282Z,2.60
2024-05-09T04:35:43.399Z,1.83
2024-05-09T04:38:12.498Z,2.20
2024-05-09T04:40:40.180Z,1.88
2024-05-09T04:43:14.657Z,2.20
2024-05-09T04:45:42.343Z,2.13
2024-05-09T04:48:10.455Z,2.00
2024-05-09T04:50:39.602Z,1.90
2024-05-09T04:53:10.348Z,1.65
2024-05-09T04:55:40.078Z,2.38
2024-05-09T04:58:09.700Z,2.40
2024-05-09T05:00:39.290Z,1.80
2024-05-09T05:03:13.234Z,2.70
2024-05-09T05:05:44.844Z,1.48
2024-05-09T05:08:15.385Z,1.30
2024-05-09T05:10:44.163Z,1.83
2024-05-09T05:13:21.337Z,1.85
2024-05-09T05:15:53.741Z,1.55
2024-05-09T05:18:22.385Z,1.42
2024-05-09T05:20:50.373Z,1.60
2024-05-09T05:23:20.261Z,1.42
2024-05-09T05:25:50.089Z,1.50
2024-05-09T05:28:17.946Z,1.10
2024-05-09T05:30:46.088Z,1.77
2024-05-09T05:33:16.166Z,1.08
2024-05-09T05:35:44.262Z,0.85
2024-05-09T05:38:12.107Z,0.77
2024-05-09T05:40:40.911Z,1.23
2024-05-09T05:43:10.535Z,1.20
2024-05-09T05:45:39.276Z,1.05
2024-05-09T05:48:08.182Z,1.20
2024-05-09T05:50:37.970Z,0.93
2024-05-09T05:53:08.269Z,0.75
2024-05-09T05:55:37.123Z,0.80
2024-05-09T05:58:05.161Z,0.85
2024-05-09T06:00:38.878Z,0.45
2024-05-09T06:03:09.934Z,0.80
2024-05-09T06:05:40.747Z,0.80
2024-05-09T06:08:09.504Z,1.00
2024-05-09T06:10:40.024Z,0.95
2024-05-09T06:13:13.432Z,1.27
2024-05-09T06:15:42.444Z,0.88
2024-05-09T06:18:12.071Z,0.93
2024-05-09T06:20:43.449Z,0.98
2024-05-09T06:23:13.285Z,1.05
2024-05-09T06:25:42.776Z,0.80
2024-05-09T06:28:11.084Z,0.88
2024-05-09T06:30:42.532Z,1.20
2024-05-09T06:33:14.550Z,1.80
2024-05-09T06:38:12.245Z,1.40
2024-05-09T06:40:43.067Z,1.40
2024-05-09T06:43:17.141Z,0.90
2024-05-09T06:45:49.175Z,1.05
2024-05-09T06:48:19.472Z,1.40
2024-05-09T06:50:48.208Z,1.30
2024-05-09T06:53:16.645Z,1.35
2024-05-09T06:55:44.296Z,1.02
2024-05-09T06:58:12.068Z,0.70
2024-05-09T07:00:41.635Z,1.00
2024-05-09T07:03:12.951Z,1.10
2024-05-09T07:08:10.420Z,1.30
2024-05-09T07:10:38.713Z,0.90
2024-05-09T07:13:10.609Z,0.73
2024-05-09T07:18:17.794Z,1.17
2024-05-09T07:20:47.878Z,1.00
2024-05-09T07:23:16.686Z,1.13
2024-05-09T07:25:45.016Z,1.10
2024-05-09T07:28:15.908Z,0.90
2024-05-09T07:30:44.808Z,1.02
2024-05-09T07:33:23.067Z,0.73
2024-05-09T07:35:53.152Z,0.80
2024-05-09T07:38:21.927Z,1.10
2024-05-09T07:40:50.404Z,0.93
2024-05-09T07:43:18.461Z,1.10
2024-05-09T07:45:52.538Z,0.70
2024-05-09T07:52:38.347Z,0.77
2024-05-09T07:53:47.375Z,0.40
2024-05-09T07:56:20.104Z,0.50
2024-05-09T07:58:51.011Z,0.50
2024-05-09T08:01:19.158Z,0.60
2024-05-09T08:03:49.806Z,0.50
2024-05-09T08:06:17.775Z,0.60
2024-05-09T08:08:47.890Z,0.60
2024-05-09T08:11:16.059Z,0.73
2024-05-09T08:13:43.799Z,0.68
2024-05-09T08:16:11.545Z,0.70
2024-05-09T08:18:39.830Z,0.60
2024-05-09T08:21:07.877Z,0.30
2024-05-09T08:23:36.656Z,0.70
2024-05-09T08:26:04.406Z,0.73
2024-05-09T08:28:31.996Z,0.90
2024-05-09T08:31:01.644Z,0.60
2024-05-09T08:33:30.941Z,0.45
2024-05-09T08:35:58.722Z,0.85
2024-05-09T08:38:26.313Z,0.63
2024-05-09T08:40:54.298Z,0.55
2024-05-09T08:43:23.716Z,0.50
2024-05-09T08:45:52.328Z,0.57
2024-05-09T08:48:20.395Z,0.60
2024-05-09T08:50:48.311Z,0.60
2024-05-09T08:53:15.975Z,0.70
2024-05-09T08:55:45.925Z,0.40
2024-05-09T08:58:16.471Z,0.57
2024-05-09T09:00:45.999Z,0.45
2024-05-09T09:03:25.605Z,0.93
2024-05-09T09:08:34.201Z,0.50
2024-05-09T09:11:02.070Z,0.70
2024-05-09T09:13:29.683Z,0.60
2024-05-09T09:15:59.514Z,0.70
2024-05-09T09:18:28.579Z,1.60
2024-05-09T09:20:56.770Z,0.85
2024-05-09T09:23:24.405Z,0.90
2024-05-09T09:25:52.366Z,0.40
2024-05-09T09:28:23.414Z,0.68
2024-05-09T09:30:51.337Z,0.45
2024-05-09T09:33:19.921Z,0.80
2024-05-09T09:35:47.596Z,0.65
2024-05-09T09:38:18.795Z,0.82
2024-05-09T09:40:49.641Z,0.70
2024-05-09T09:43:21.450Z,0.80
2024-05-09T09:45:53.126Z,0.55
2024-05-09T09:48:23.058Z,0.60
2024-05-09T09:50:53.182Z,0.60
2024-05-09T09:53:23.662Z,0.70
2024-05-09T09:55:52.770Z,0.88
2024-05-09T09:58:20.920Z,0.63
2024-05-09T10:00:48.836Z,0.47
2024-05-09T10:03:16.660Z,0.65
2024-05-09T10:05:47.017Z,0.68
2024-05-09T10:08:16.313Z,0.90
2024-05-09T10:10:48.204Z,0.70
2024-05-09T10:13:16.672Z,0.82
2024-05-09T10:18:28.399Z,0.82
2024-05-09T10:20:59.936Z,0.90
2024-05-09T10:23:30.564Z,0.77
2024-05-09T10:26:00.381Z,0.88
2024-05-09T10:28:33.097Z,0.57
2024-05-09T10:31:12.095Z,0.50
2024-05-09T10:33:46.323Z,0.73
2024-05-09T10:36:16.115Z,0.88
2024-05-09T10:38:44.565Z,0.70
2024-05-09T10:41:12.390Z,0.80
2024-05-09T10:43:41.625Z,0.60
2024-05-09T10:46:10.506Z,0.95
2024-05-09T10:48:39.356Z,0.73
2024-05-09T10:51:07.352Z,0.80
2024-05-09T10:56:19.988Z,1.20
2024-05-09T10:58:48.630Z,0.88
2024-05-09T11:01:16.769Z,1.00
2024-05-09T11:03:49.036Z,0.68
2024-05-09T11:06:17.984Z,0.88
2024-05-09T11:08:47.077Z,0.75
2024-05-09T11:11:15.373Z,0.80
2024-05-09T11:13:43.471Z,0.73
2024-05-09T11:16:21.193Z,0.60
2024-05-09T11:18:58.957Z,0.60
2024-05-09T11:21:27.333Z,0.68
2024-05-09T11:23:55.305Z,0.70
2024-05-09T11:26:25.639Z,0.77
2024-05-09T11:28:53.503Z,0.68
2024-05-09T11:31:21.732Z,0.90
2024-05-09T11:33:50.244Z,0.85
2024-05-09T11:36:18.202Z,0.63
2024-05-09T11:38:46.090Z,0.70
2024-05-09T11:41:18.932Z,0.73
2024-05-09T11:43:47.040Z,0.57
2024-05-09T11:46:15.246Z,0.93
2024-05-09T11:48:43.521Z,0.90
2024-05-09T11:51:11.865Z,0.80
2024-05-09T11:53:39.663Z,1.15
2024-05-09T11:56:07.794Z,0.77
2024-05-09T11:58:37.371Z,0.85
2024-05-09T12:01:05.704Z,1.23
2024-05-09T12:03:35.435Z,1.15
2024-05-09T12:06:03.488Z,1.00
2024-05-09T12:08:31.490Z,1.10
2024-05-09T12:10:59.398Z,1.33
2024-05-09T12:13:27.774Z,0.82
2024-05-09T12:15:55.607Z,1.13
2024-05-09T12:18:23.413Z,1.13
2024-05-09T12:20:51.189Z,1.20
2024-05-09T12:23:19.127Z,2.63
2024-05-09T12:25:46.936Z,0.93
2024-05-09T12:28:17.182Z,1.08
2024-05-09T12:30:45.198Z,0.98
2024-05-09T12:33:14.288Z,1.30
2024-05-09T12:35:45.284Z,0.98
2024-05-09T12:38:15.537Z,1.00
2024-05-09T12:40:43.755Z,1.50
2024-05-09T12:43:12.065Z,1.10
2024-05-09T12:45:40.837Z,1.30
2024-05-09T12:48:12.530Z,1.02
2024-05-09T12:50:41.802Z,1.20
2024-05-09T12:53:10.088Z,1.40
2024-05-09T12:55:45.111Z,1.00
2024-05-09T12:58:22.885Z,1.25
2024-05-09T13:00:52.607Z,1.30
2024-05-09T13:03:20.961Z,1.45
2024-05-09T13:05:50.223Z,1.20
2024-05-09T13:08:18.210Z,1.33
2024-05-09T13:10:46.601Z,1.63
2024-05-09T13:13:14.745Z,1.52
2024-05-09T13:15:42.567Z,1.15
2024-05-09T13:18:10.589Z,1.40
2024-05-09T13:20:38.364Z,1.00
2024-05-09T13:23:08.335Z,1.27
2024-05-09T13:25:37.924Z,1.17
2024-05-09T13:28:07.544Z,1.33
2024-05-09T13:30:40.591Z,1.42
2024-05-09T13:33:12.472Z,1.52
2024-05-09T13:35:47.240Z,1.88
2024-05-09T13:38:19.592Z,1.63
2024-05-09T13:40:48.210Z,1.30
2024-05-09T13:43:16.811Z,1.60
2024-05-09T13:45:44.743Z,1.70
2024-05-09T13:48:12.883Z,1.63
2024-05-09T13:50:40.850Z,1.50
2024-05-09T13:53:09.111Z,1.40
2024-05-09T13:55:39.220Z,1.50
2024-05-09T13:58:07.266Z,1.30
2024-05-09T14:03:05.849Z,1.48
2024-05-09T14:05:33.799Z,2.92
2024-05-09T14:08:01.661Z,1.88
2024-05-09T14:10:31.671Z,1.73
2024-05-09T14:13:01.442Z,1.98
2024-05-09T14:15:29.632Z,1.48
2024-05-09T14:17:57.473Z,1.52
2024-05-09T14:20:31.058Z,1.92
2024-05-09T14:23:01.026Z,1.73
2024-05-09T14:25:30.542Z,1.42
2024-05-09T14:27:58.890Z,1.25
2024-05-09T14:30:34.692Z,1.20
2024-05-09T14:33:06.678Z,1.65
2024-05-09T14:35:35.249Z,1.95
2024-05-09T14:38:03.512Z,1.80
2024-05-09T14:43:04.493Z,1.80
2024-05-09T14:45:32.868Z,1.73
2024-05-09T14:48:00.816Z,1.58
2024-05-09T14:50:35.413Z,2.25
2024-05-09T14:53:07.610Z,1.38
2024-05-09T14:55:37.715Z,1.23
2024-05-09T14:58:07.554Z,2.03
2024-05-09T15:00:41.248Z,1.60
2024-05-09T15:03:12.349Z,1.67
2024-05-09T15:05:40.730Z,1.25
2024-05-09T15:08:08.950Z,2.05
2024-05-09T15:10:37.742Z,1.55
2024-05-09T15:13:07.905Z,1.55
2024-05-09T15:18:06.177Z,1.70
2024-05-09T15:20:36.697Z,1.63
2024-05-09T15:23:07.116Z,1.30
2024-05-09T15:25:36.486Z,1.30
2024-05-09T15:28:08.149Z,1.85
2024-05-09T15:30:37.088Z,1.45
2024-05-09T15:33:06.550Z,1.60
2024-05-09T15:35:36.154Z,2.03
2024-05-09T15:38:04.783Z,1.83
2024-05-09T15:40:39.093Z,2.08
2024-05-09T15:43:10.779Z,2.10
2024-05-09T15:45:41.218Z,1.45
2024-05-09T15:48:10.539Z,1.65
2024-05-09T15:50:41.425Z,1.73
2024-05-09T15:53:12.587Z,1.80
2024-05-09T15:55:41.972Z,1.65
2024-05-09T15:58:10.279Z,1.73
2024-05-09T16:00:41.684Z,1.85
2024-05-09T16:03:12.737Z,1.73
2024-05-09T16:05:42.157Z,1.05
2024-05-09T16:08:10.046Z,2.10
2024-05-09T16:10:43.563Z,2.03
2024-05-09T16:13:12.619Z,2.10
2024-05-09T16:15:40.660Z,1.58
2024-05-09T16:18:08.722Z,1.98
2024-05-09T16:20:40.316Z,1.48
2024-05-09T16:23:10.563Z,2.00
2024-05-09T16:25:38.307Z,1.60
2024-05-09T16:28:09.717Z,1.83
2024-05-09T16:30:39.997Z,1.77
2024-05-09T16:33:08.834Z,1.52
2024-05-09T16:35:37.871Z,8.82
2024-05-09T16:38:07.253Z,3.33
2024-05-09T16:40:39.157Z,1.83
2024-05-09T16:43:10.351Z,3.17
2024-05-09T16:45:40.145Z,2.10
2024-05-09T16:48:08.669Z,1.98
2024-05-09T16:50:36.910Z,1.63
2024-05-09T16:53:05.989Z,1.60
2024-05-09T16:55:34.967Z,1.55
2024-05-09T16:58:04.134Z,1.95
2024-05-09T17:00:40.033Z,1.85
2024-05-09T17:03:14.266Z,1.83
2024-05-09T17:05:43.557Z,2.38
2024-05-09T17:08:11.713Z,2.28
2024-05-09T17:10:39.416Z,2.17
2024-05-09T17:13:08.085Z,1.65
2024-05-09T17:15:37.497Z,2.00
2024-05-09T17:18:07.857Z,1.60
2024-05-09T17:20:37.515Z,1.92
2024-05-09T17:23:13.658Z,2.05
2024-05-09T17:25:42.389Z,2.10
2024-05-09T17:28:11.106Z,1.90
2024-05-09T17:30:40.904Z,1.92
2024-05-09T17:33:11.183Z,2.00
2024-05-09T17:35:40.091Z,2.08
2024-05-09T17:38:07.750Z,1.98
2024-05-09T17:40:37.458Z,2.17
2024-05-09T17:43:09.072Z,2.17
2024-05-09T17:45:40.501Z,2.42
2024-05-09T17:48:10.720Z,2.45
2024-05-09T17:50:40.080Z,2.15
2024-05-09T17:53:08.771Z,2.40
2024-05-09T17:55:36.837Z,2.33
2024-05-09T17:58:05.489Z,2.40
2024-05-09T18:00:39.203Z,2.00
2024-05-09T18:03:12.467Z,3.30
2024-05-09T18:05:41.735Z,2.75
2024-05-09T18:08:09.747Z,2.95
2024-05-09T18:10:39.780Z,3.30
2024-05-09T18:13:09.246Z,2.63
2024-05-09T18:15:38.064Z,3.10
2024-05-09T18:18:07.433Z,2.83
2024-05-09T18:20:42.144Z,3.55
2024-05-09T18:23:16.383Z,3.20
2024-05-09T18:28:12.898Z,2.75
2024-05-09T18:30:41.340Z,2.88
2024-05-09T18:33:11.659Z,2.67
2024-05-09T18:35:41.498Z,3.13
2024-05-09T18:38:09.388Z,2.85
2024-05-09T18:40:38.525Z,3.15
2024-05-09T18:43:08.893Z,2.90
2024-05-09T18:45:38.583Z,3.03
2024-05-09T18:48:08.495Z,3.13
2024-05-09T18:50:39.790Z,3.10
2024-05-09T18:53:11.792Z,3.40
2024-05-09T18:55:41.543Z,2.30
2024-05-09T18:58:09.289Z,2.85
2024-05-09T19:00:39.910Z,2.78
2024-05-09T19:03:12.785Z,2.92
2024-05-09T19:05:44.694Z,2.75
2024-05-09T19:08:15.310Z,2.50
2024-05-09T19:10:46.071Z,3.08
2024-05-09T19:13:14.891Z,2.45
2024-05-09T19:15:43.777Z,2.28
2024-05-09T19:18:14.376Z,3.22
2024-05-09T19:20:43.140Z,2.92
2024-05-09T19:23:11.995Z,2.88
2024-05-09T19:25:40.198Z,2.75
2024-05-09T19:28:07.858Z,2.67
2024-05-09T19:30:40.280Z,2.55
2024-05-09T19:33:13.118Z,3.25
2024-05-09T19:35:42.231Z,3.03
2024-05-09T19:38:09.851Z,2.83
2024-05-09T19:40:37.522Z,2.35
2024-05-09T19:43:06.304Z,2.80
2024-05-09T19:45:35.791Z,3.17
2024-05-09T19:48:05.648Z,2.75
2024-05-09T19:50:41.365Z,3.22
2024-05-09T19:53:14.264Z,2.67
2024-05-09T19:55:42.650Z,3.25
2024-05-09T19:58:11.384Z,2.58
2024-05-09T20:00:42.263Z,2.17
2024-05-09T20:03:12.644Z,2.92
2024-05-09T20:05:43.352Z,2.75
2024-05-09T20:08:11.291Z,2.63
2024-05-09T20:10:39.271Z,2.85
2024-05-09T20:13:08.457Z,2.90
2024-05-09T20:15:38.090Z,2.95
2024-05-09T20:18:07.212Z,2.45
2024-05-09T20:20:39.587Z,2.22
2024-05-09T20:23:11.717Z,2.53
2024-05-09T20:25:39.501Z,3.38
2024-05-09T20:28:07.597Z,2.67
2024-05-09T20:30:36.035Z,3.28
2024-05-09T20:33:05.540Z,2.72
2024-05-09T20:35:35.126Z,2.80
2024-05-09T20:38:03.847Z,2.53
2024-05-09T20:40:36.148Z,2.00
2024-05-09T20:43:08.537Z,2.72
2024-05-09T20:45:36.645Z,2.78
2024-05-09T20:48:04.909Z,2.50
2024-05-09T20:50:38.804Z,2.60
2024-05-09T20:53:10.349Z,2.42
2024-05-09T20:55:38.091Z,2.78
2024-05-09T20:58:05.852Z,2.28
2024-05-09T21:00:39.563Z,2.63
2024-05-09T21:03:11.846Z,2.65
2024-05-09T21:05:41.025Z,2.70
2024-05-09T21:08:09.252Z,2.90
2024-05-09T21:10:37.698Z,2.67
2024-05-09T21:13:07.022Z,2.92
2024-05-09T21:15:35.983Z,2.28
2024-05-09T21:18:04.829Z,3.05
2024-05-09T21:20:35.140Z,2.58
2024-05-09T21:23:03.995Z,3.00
2024-05-09T21:25:32.234Z,2.63
2024-05-09T21:28:00.508Z,2.80
2024-05-09T21:30:37.888Z,3.20
2024-05-09T21:33:11.653Z,3.17
2024-05-09T21:35:41.771Z,2.30
2024-05-09T21:38:09.502Z,2.70
2024-05-09T21:40:38.553Z,3.00
2024-05-09T21:43:28.896Z,2.42
2024-05-09T21:45:56.538Z,2.72
2024-05-09T21:48:24.176Z,2.95
2024-05-09T21:50:52.128Z,2.58
2024-05-09T21:53:19.682Z,2.92
2024-05-09T21:55:47.370Z,3.15
2024-05-09T21:58:15.298Z,2.88
2024-05-09T22:00:45.757Z,3.95
2024-05-09T22:03:14.643Z,2.15
2024-05-09T22:05:44.854Z,3.30
2024-05-09T22:08:13.068Z,3.58
2024-05-09T22:10:41.132Z,3.17
2024-05-09T22:13:09.172Z,3.17
2024-05-09T22:15:39.652Z,3.63
2024-05-09T22:18:09.980Z,3.13
2024-05-09T22:20:45.485Z,2.83
2024-05-09T22:23:15.097Z,3.47
2024-05-09T22:25:42.829Z,3.67
2024-05-09T22:28:10.938Z,3.10
2024-05-09T22:30:40.075Z,3.28
2024-05-09T22:33:10.362Z,2.60
2024-05-09T22:35:40.934Z,3.13
2024-05-09T22:38:09.325Z,2.70
2024-05-09T22:40:45.788Z,3.40
2024-05-09T22:43:21.521Z,2.78
2024-05-09T22:45:51.459Z,2.97
2024-05-09T22:48:19.521Z,2.25
2024-05-09T22:50:47.313Z,2.67
2024-05-09T22:53:15.015Z,2.95
2024-05-09T22:55:43.012Z,3.40
2024-05-09T22:58:10.617Z,3.10
2024-05-09T23:00:38.388Z,3.25
2024-05-09T23:05:34.165Z,2.92
2024-05-09T23:08:02.829Z,3.50
2024-05-09T23:10:35.997Z,2.88
2024-05-09T23:13:07.339Z,2.95
2024-05-09T23:15:37.370Z,3.58
2024-05-09T23:18:05.651Z,2.58
2024-05-09T23:20:38.052Z,2.55
2024-05-09T23:23:09.203Z,2.72
2024-05-09T23:25:37.851Z,2.65
2024-05-09T23:28:06.322Z,2.75
2024-05-09T23:30:38.639Z,2.95
2024-05-09T23:33:10.500Z,2.72
2024-05-09T23:35:41.394Z,3.20
2024-05-09T23:38:09.246Z,2.92
2024-05-09T23:40:39.952Z,3.13
2024-05-09T23:43:10.868Z,2.58
2024-05-09T23:45:39.143Z,3.33
2024-05-09T23:48:07.603Z,3.03
2024-05-09T23:50:38.037Z,2.72
2024-05-09T23:53:08.598Z,2.30
2024-05-09T23:55:37.584Z,2.28
2024-05-09T23:58:05.788Z,2.75
